首页
METAR-TAF:

METAR-TAF

机场 :

圣莫里茨, 瑞士

纬度: 46-32-03N, 经度: 9-53-03E, 海拔: 1707米

当前天气观测

该预报发布于22分钟前的18:20 UTC
静风
温度 0°C
湿度 100%
气压 1014 hPa
能見度: 1200
小雪

METAR: LSZS 191820Z AUTO 00000KT 1200 -SN VV008 M00/M00 Q1014 REFZDZ

时间: 19:42 (18:42 UTC)

预报

该预报发布于4小时和17分钟前的14:25 UTC
预报有效从19日的 15点(UTC)到 19日的 24点(UTC)
风速3节,风向多变
能见度10公里或以上
少量云层高于1500英尺
多云层高于5000英尺
几率 40% :
短暂存在
从 19日的 15点(UTC)到 19日的 21点(UTC)
能見度: 4500
多云层高于1300英尺
小雪

TAF: LSZS 191425Z 1915/1924 VRB03KT 9999 FEW015 BKN050 TX00/1915Z PROB40 TEMPO 1915/1921 4500 -SN BKN013

超过4000个机场的气象观测和天气预报(METAR&TAF报告)。

可查询的气象台以黄色和红色小点在地图上表示。

将鼠标移到小点上方,可查看气象台名称。

然后点击查看天气观测和预报。

如需切换地图:点击带黑十字的绿色按钮放大地图;点击带横线的绿色按钮缩小地图;或者点击绿色箭头查看邻近地区的地图。


METAR-TAF: